Time;durP1;ratioP1;P1;durP2;ratioP2;P2;SDS_P1;SDS_P2;PMS_P1;PMS_P2;Temp;Humidity;BMP_temperature;BMP_pressure;BME280_temperature;BME280_humidity;BME280_pressure;Samples;Min_cycle;Max_cycle;Signal;HPM_P1;HPM_P2
2023/08/19 00:01:18;;;;;;;13.05;5.75;;;20.20;99.90;;;;;;5055769;28;20104;-70
2023/08/19 00:03:44;;;;;;;13.73;5.43;;;20.10;99.90;;;;;;5055477;28;20405;-70
2023/08/19 00:06:30;;;;;;;10.10;6.22;;;19.80;99.90;;;;;;5055452;28;20025;-70
2023/08/19 00:08:55;;;;;;;11.68;6.20;;;19.70;99.90;;;;;;5055688;28;20028;-70
2023/08/19 00:11:21;;;;;;;13.10;6.50;;;19.50;99.90;;;;;;5055112;28;20365;-70
2023/08/19 00:13:47;;;;;;;9.73;4.85;;;19.50;99.90;;;;;;5055297;28;20432;-70
2023/08/19 00:16:12;;;;;;;10.80;5.43;;;19.50;99.90;;;;;;5055251;28;20078;-70
2023/08/19 00:18:38;;;;;;;11.63;5.65;;;19.90;99.90;;;;;;5054939;28;20372;-70
2023/08/19 00:21:04;;;;;;;8.43;5.25;;;20.10;99.90;;;;;;5055176;28;20032;-70
2023/08/19 00:23:29;;;;;;;8.93;5.72;;;20.20;99.90;;;;;;5055160;28;20407;-70
2023/08/19 00:25:55;;;;;;;10.13;5.03;;;20.20;99.90;;;;;;5055225;28;20025;-71
2023/08/19 00:28:21;;;;;;;8.88;4.78;;;20.30;99.90;;;;;;5055558;28;20025;-70
2023/08/19 00:30:46;;;;;;;6.82;4.97;;;20.40;99.90;;;;;;5054758;28;20457;-70
2023/08/19 00:33:12;;;;;;;8.18;5.38;;;20.30;99.90;;;;;;5054878;28;20032;-70
2023/08/19 00:35:39;;;;;;;10.35;5.55;;;20.20;99.90;;;;;;5055173;28;20060;-70
2023/08/19 00:38:04;;;;;;;12.30;5.10;;;20.20;99.90;;;;;;5054839;28;20024;-70
2023/08/19 00:40:30;;;;;;;8.40;4.22;;;20.10;99.90;;;;;;5054837;28;20018;-71
2023/08/19 00:42:56;;;;;;;9.10;5.30;;;20.20;99.90;;;;;;5054819;28;20426;-71
2023/08/19 00:45:21;;;;;;;7.78;4.55;;;20.50;99.90;;;;;;5054961;28;20037;-70
2023/08/19 00:47:47;;;;;;;7.70;5.13;;;20.40;99.90;;;;;;5054896;28;20449;-70
2023/08/19 00:50:15;;;;;;;6.93;4.70;;;20.40;99.90;;;;;;5054686;28;20116;-69
2023/08/19 00:52:42;;;;;;;6.47;4.35;;;20.30;99.90;;;;;;5054534;28;20028;-70
2023/08/19 00:55:08;;;;;;;13.77;5.38;;;20.40;99.90;;;;;;5054984;28;20346;-70
2023/08/19 00:57:36;;;;;;;7.55;4.65;;;20.50;99.90;;;;;;5054400;28;20484;-70
2023/08/19 01:00:03;;;;;;;10.07;4.90;;;20.30;99.90;;;;;;5054079;28;20473;-70
2023/08/19 01:02:29;;;;;;;9.88;4.90;;;20.20;99.90;;;;;;5054376;28;20051;-70
2023/08/19 01:04:55;;;;;;;10.38;4.60;;;20.00;99.90;;;;;;5054031;28;20064;-70
2023/08/19 01:07:43;;;;;;;9.50;4.40;;;20.10;99.90;;;;;;5054196;28;20036;-70
2023/08/19 01:10:30;;;;;;;12.35;5.57;;;20.40;99.90;;;;;;5054529;28;20444;-70
2023/08/19 01:13:11;;;;;;;11.75;5.10;;;20.70;99.90;;;;;;5054259;28;20024;-71
2023/08/19 01:15:52;;;;;;;7.57;5.13;;;20.50;99.90;;;;;;5054185;28;20028;-70
2023/08/19 01:18:18;;;;;;;10.57;4.90;;;20.20;99.90;;;;;;5053745;28;20469;-70
2023/08/19 01:20:45;;;;;;;9.30;4.80;;;20.00;99.90;;;;;;5054153;28;20044;-69
2023/08/19 01:23:18;;;;;;;7.93;4.82;;;20.10;99.90;;;;;;5052264;28;20369;-71
2023/08/19 01:25:44;;;;;;;10.02;4.57;;;20.20;99.90;;;;;;5054413;28;20036;-72
2023/08/19 01:28:10;;;;;;;6.82;4.70;;;20.20;99.90;;;;;;5053958;28;20044;-70
2023/08/19 01:30:35;;;;;;;6.97;4.60;;;20.20;99.90;;;;;;5054425;28;20061;-70
2023/08/19 01:33:02;;;;;;;8.52;4.80;;;20.20;99.90;;;;;;5054089;28;20442;-70
2023/08/19 01:35:35;;;;;;;11.23;4.63;;;20.30;99.90;;;;;;5053764;28;20104;-71
2023/08/19 01:38:18;;;;;;;6.18;4.60;;;20.30;99.90;;;;;;5054119;28;20025;-70
2023/08/19 01:40:44;;;;;;;8.88;5.53;;;20.20;99.90;;;;;;5053978;28;20064;-71
2023/08/19 01:43:11;;;;;;;12.02;5.22;;;20.00;99.90;;;;;;5054224;28;20048;-70
2023/08/19 01:45:38;;;;;;;11.18;5.78;;;19.40;99.90;;;;;;5053507;28;20064;-71
2023/08/19 01:48:04;;;;;;;14.23;5.88;;;19.20;99.90;;;;;;5053240;28;20377;-71
2023/08/19 01:50:30;;;;;;;9.45;5.30;;;19.10;99.90;;;;;;5053900;28;20049;-70
2023/08/19 01:52:56;;;;;;;8.55;5.45;;;19.20;99.90;;;;;;5053801;28;20021;-70
2023/08/19 01:55:22;;;;;;;14.48;5.40;;;19.30;99.90;;;;;;5053987;28;20036;-70
2023/08/19 01:57:47;;;;;;;9.00;5.63;;;19.10;99.90;;;;;;5053531;28;20025;-71
2023/08/19 02:00:13;;;;;;;11.15;5.82;;;19.00;99.90;;;;;;5053481;28;20101;-70
2023/08/19 02:02:39;;;;;;;12.73;5.63;;;18.80;99.90;;;;;;5054004;28;20458;-70
2023/08/19 02:05:05;;;;;;;11.27;6.03;;;18.90;99.90;;;;;;5053391;28;20021;-70
2023/08/19 02:07:31;;;;;;;8.70;5.70;;;18.90;99.90;;;;;;5053336;28;20045;-70
2023/08/19 02:09:56;;;;;;;8.65;5.75;;;18.70;99.90;;;;;;5053101;28;20162;-70
2023/08/19 02:12:22;;;;;;;13.00;6.47;;;18.60;99.90;;;;;;5054052;28;20406;-70
2023/08/19 02:14:48;;;;;;;13.43;6.15;;;18.50;99.90;;;;;;5053342;28;20017;-71
2023/08/19 02:17:13;;;;;;;8.70;5.72;;;18.30;99.90;;;;;;5053468;28;20112;-70
2023/08/19 02:19:39;;;;;;;15.32;6.38;;;18.30;99.90;;;;;;5052841;28;20037;-71
2023/08/19 02:22:05;;;;;;;9.10;6.13;;;18.10;99.90;;;;;;5053702;28;20029;-71
2023/08/19 02:24:30;;;;;;;11.75;6.93;;;18.00;99.90;;;;;;5053694;28;20434;-70
2023/08/19 02:26:56;;;;;;;11.23;5.95;;;18.00;99.90;;;;;;5053041;28;20040;-70
2023/08/19 02:29:21;;;;;;;16.77;6.40;;;18.00;99.90;;;;;;5053077;28;20064;-70
2023/08/19 02:31:47;;;;;;;10.40;6.10;;;18.00;99.90;;;;;;5052767;28;20111;-71
2023/08/19 02:34:13;;;;;;;11.50;6.45;;;18.10;99.90;;;;;;5056727;28;20029;-70
2023/08/19 02:36:39;;;;;;;12.27;6.00;;;18.20;99.90;;;;;;5055732;28;20025;-71
2023/08/19 02:39:04;;;;;;;13.63;6.00;;;18.20;99.90;;;;;;5057280;28;20032;-70
2023/08/19 02:41:30;;;;;;;13.45;6.63;;;18.30;99.90;;;;;;5057514;28;20021;-70
2023/08/19 02:43:56;;;;;;;13.93;6.53;;;18.40;99.90;;;;;;5056986;28;20342;-70
2023/08/19 02:46:22;;;;;;;12.88;5.95;;;18.40;99.90;;;;;;5056834;28;20028;-71
2023/08/19 02:48:47;;;;;;;10.05;5.88;;;18.40;99.90;;;;;;5057013;28;20603;-70
2023/08/19 02:51:13;;;;;;;9.45;5.85;;;18.30;99.90;;;;;;5057300;28;20032;-70
2023/08/19 02:53:39;;;;;;;10.80;5.82;;;18.20;99.90;;;;;;5056713;28;20023;-70
2023/08/19 02:56:06;;;;;;;10.45;5.95;;;18.00;99.90;;;;;;5056815;28;20053;-70
2023/08/19 02:58:31;;;;;;;12.18;5.60;;;17.80;99.90;;;;;;5055408;28;20021;-70
2023/08/19 03:00:57;;;;;;;9.35;6.38;;;17.80;99.90;;;;;;5057410;28;20111;-71
2023/08/19 03:03:23;;;;;;;12.10;6.25;;;17.70;99.90;;;;;;5056899;28;20025;-70
2023/08/19 03:05:48;;;;;;;15.23;5.82;;;17.70;99.90;;;;;;5056535;28;20029;-71
2023/08/19 03:08:14;;;;;;;13.50;6.72;;;17.80;99.90;;;;;;5056638;28;20021;-70
2023/08/19 03:10:40;;;;;;;13.90;6.50;;;17.90;99.90;;;;;;5056251;28;20449;-70
2023/08/19 03:13:07;;;;;;;8.77;5.82;;;17.80;99.90;;;;;;5056231;28;20025;-70
2023/08/19 03:15:35;;;;;;;9.18;6.18;;;17.70;99.90;;;;;;5056360;28;20472;-70
2023/08/19 03:18:01;;;;;;;13.02;6.63;;;17.70;99.90;;;;;;5056552;28;20104;-70
2023/08/19 03:20:27;;;;;;;13.35;6.35;;;17.70;99.90;;;;;;5056325;28;20428;-70
2023/08/19 03:22:53;;;;;;;13.52;6.30;;;17.70;99.90;;;;;;5056518;28;20021;-71
2023/08/19 03:25:19;;;;;;;15.27;6.82;;;17.70;99.90;;;;;;5056136;28;20021;-70
2023/08/19 03:27:44;;;;;;;13.35;6.32;;;17.80;99.90;;;;;;5056244;28;20029;-70
2023/08/19 03:30:10;;;;;;;11.55;6.20;;;17.70;99.90;;;;;;5056162;28;20021;-69
2023/08/19 03:32:36;;;;;;;11.55;6.50;;;17.80;99.90;;;;;;5056357;28;20100;-70
2023/08/19 03:35:02;;;;;;;15.25;6.72;;;17.80;99.90;;;;;;5056332;28;20053;-70
2023/08/19 03:37:28;;;;;;;9.55;5.72;;;17.80;99.90;;;;;;5056000;28;20053;-70
2023/08/19 03:39:54;;;;;;;16.08;6.22;;;17.80;99.90;;;;;;5055949;28;20480;-70
2023/08/19 03:42:19;;;;;;;13.48;6.63;;;17.80;99.90;;;;;;5055850;28;20043;-71
2023/08/19 03:44:45;;;;;;;17.15;6.57;;;17.70;99.90;;;;;;5054704;28;20115;-70
2023/08/19 03:47:12;;;;;;;9.32;5.72;;;17.60;99.90;;;;;;5055758;28;20036;-71
2023/08/19 03:49:38;;;;;;;13.50;6.22;;;17.70;99.90;;;;;;5055776;28;20095;-71
2023/08/19 03:52:07;;;;;;;14.90;6.25;;;17.60;99.90;;;;;;5056001;28;20049;-70
2023/08/19 03:54:33;;;;;;;9.27;6.00;;;17.70;99.90;;;;;;5055693;28;20017;-70
2023/08/19 03:56:59;;;;;;;12.32;6.22;;;17.70;99.90;;;;;;5055845;28;20024;-71
2023/08/19 03:59:25;;;;;;;10.68;5.93;;;17.70;99.90;;;;;;5055625;28;20048;-71
2023/08/19 04:01:51;;;;;;;10.77;5.63;;;17.60;99.90;;;;;;5055561;28;20449;-70
2023/08/19 04:04:16;;;;;;;9.48;5.35;;;17.60;99.90;;;;;;5055436;28;20104;-70
2023/08/19 04:06:42;;;;;;;15.02;6.55;;;17.60;99.90;;;;;;5055481;28;20025;-70
2023/08/19 04:09:08;;;;;;;11.18;5.57;;;17.50;99.90;;;;;;5055382;28;20036;-71
2023/08/19 04:11:33;;;;;;;15.07;5.68;;;17.30;99.90;;;;;;5055037;28;20464;-71
2023/08/19 04:13:59;;;;;;;8.98;5.93;;;17.20;99.90;;;;;;5055357;28;20060;-70
2023/08/19 04:16:25;;;;;;;10.85;5.80;;;17.30;99.90;;;;;;5055741;28;20382;-71
2023/08/19 04:18:51;;;;;;;7.45;5.63;;;17.30;99.90;;;;;;5053856;28;20098;-71
2023/08/19 04:21:17;;;;;;;11.30;5.82;;;17.40;99.90;;;;;;5055470;28;20021;-71
2023/08/19 04:23:43;;;;;;;12.52;5.47;;;17.40;99.90;;;;;;5055059;28;20515;-71
2023/08/19 04:26:08;;;;;;;9.93;5.60;;;17.30;99.90;;;;;;5055234;28;20032;-71
2023/08/19 04:28:34;;;;;;;7.97;5.55;;;17.40;99.90;;;;;;5055073;28;20460;-71
2023/08/19 04:31:04;;;;;;;12.02;6.05;;;17.40;99.90;;;;;;5055011;28;20025;-71
2023/08/19 04:33:31;;;;;;;8.43;5.45;;;17.30;99.90;;;;;;5054972;28;20021;-70
2023/08/19 04:35:57;;;;;;;12.25;5.95;;;17.30;99.90;;;;;;5054881;28;20416;-71
2023/08/19 04:38:22;;;;;;;12.20;6.13;;;17.20;99.90;;;;;;5055180;28;20021;-71
2023/08/19 04:40:48;;;;;;;12.98;6.93;;;17.20;99.90;;;;;;5054832;28;20024;-71
2023/08/19 04:43:14;;;;;;;11.98;6.95;;;17.20;99.90;;;;;;5055185;28;20111;-70
2023/08/19 04:45:39;;;;;;;14.52;7.25;;;17.20;99.90;;;;;;5054649;28;20037;-70
2023/08/19 04:48:06;;;;;;;10.98;6.82;;;17.30;99.90;;;;;;5054835;28;20319;-71
2023/08/19 04:50:32;;;;;;;17.15;6.70;;;17.40;99.90;;;;;;5053624;28;20045;-71
2023/08/19 04:52:58;;;;;;;16.13;6.68;;;17.40;99.90;;;;;;5054552;28;20031;-70
2023/08/19 04:55:26;;;;;;;12.95;6.55;;;17.40;99.90;;;;;;5053944;28;20472;-71
2023/08/19 04:57:51;;;;;;;10.63;6.70;;;17.40;99.90;;;;;;5054363;28;20369;-71
2023/08/19 05:00:17;;;;;;;10.60;6.50;;;17.50;99.90;;;;;;5054663;28;20032;-71
2023/08/19 05:02:43;;;;;;;9.63;6.25;;;17.60;99.90;;;;;;5054675;28;20052;-71
2023/08/19 05:05:09;;;;;;;10.70;6.05;;;17.60;99.90;;;;;;5054313;28;20021;-70
2023/08/19 05:07:34;;;;;;;13.23;6.40;;;17.70;99.90;;;;;;5054309;28;20037;-71
2023/08/19 05:10:00;;;;;;;8.63;5.68;;;17.70;99.90;;;;;;5054293;28;20017;-70
2023/08/19 05:12:26;;;;;;;10.65;5.93;;;17.70;99.90;;;;;;5054497;28;20060;-71
2023/08/19 05:14:52;;;;;;;13.80;6.47;;;17.70;99.90;;;;;;5054505;28;20075;-71
2023/08/19 05:17:18;;;;;;;12.80;6.57;;;17.70;99.90;;;;;;5054275;28;20047;-70
2023/08/19 05:19:44;;;;;;;10.52;6.30;;;17.80;99.90;;;;;;5054883;28;20043;-71
2023/08/19 05:22:10;;;;;;;11.13;6.45;;;17.90;99.90;;;;;;5054014;28;20027;-71
2023/08/19 05:24:35;;;;;;;8.30;5.80;;;18.00;99.90;;;;;;5054347;28;20104;-70
2023/08/19 05:27:01;;;;;;;14.93;6.68;;;18.10;99.90;;;;;;5054329;28;20085;-71
2023/08/19 05:29:27;;;;;;;10.48;6.20;;;18.20;99.90;;;;;;5053699;28;20418;-70
2023/08/19 05:31:53;;;;;;;13.85;6.05;;;18.20;99.90;;;;;;5054045;28;20025;-71
2023/08/19 05:34:18;;;;;;;11.95;6.00;;;18.30;99.90;;;;;;5054193;28;20453;-70
2023/08/19 05:36:44;;;;;;;13.88;6.28;;;18.40;99.90;;;;;;5053862;28;20111;-70
2023/08/19 05:39:10;;;;;;;11.52;6.45;;;18.30;99.90;;;;;;5054347;28;20450;-70
2023/08/19 05:41:36;;;;;;;15.00;6.65;;;18.30;99.90;;;;;;5053732;28;20365;-70
2023/08/19 05:44:01;;;;;;;10.60;5.78;;;18.30;99.90;;;;;;5053944;28;20017;-70
2023/08/19 05:46:27;;;;;;;12.40;6.60;;;18.40;99.90;;;;;;5053668;28;20390;-71
2023/08/19 05:48:53;;;;;;;12.27;6.28;;;18.50;99.90;;;;;;5053270;28;20048;-70
2023/08/19 05:51:19;;;;;;;14.77;7.05;;;18.60;99.90;;;;;;5053904;28;20100;-71
2023/08/19 05:53:44;;;;;;;11.38;6.38;;;18.80;99.90;;;;;;5053584;28;20112;-71
2023/08/19 05:56:10;;;;;;;12.68;6.32;;;18.90;99.90;;;;;;5053429;28;20449;-71
2023/08/19 05:58:38;;;;;;;12.10;6.25;;;19.00;99.90;;;;;;5053745;28;20019;-72
2023/08/19 06:01:03;;;;;;;12.32;7.03;;;19.00;99.90;;;;;;5053439;28;20025;-69
2023/08/19 06:03:29;;;;;;;9.07;6.25;;;19.10;99.90;;;;;;5053407;28;20025;-68
2023/08/19 06:05:55;;;;;;;9.43;6.38;;;19.20;99.90;;;;;;5053355;28;20424;-68
2023/08/19 06:08:24;;;;;;;11.95;6.63;;;19.30;99.90;;;;;;5051472;28;20060;-68
2023/08/19 06:11:01;;;;;;;13.65;6.20;;;19.50;99.90;;;;;;5053323;28;20446;-69
2023/08/19 06:13:28;;;;;;;11.18;6.45;;;19.60;99.90;;;;;;5052025;28;20028;-68
2023/08/19 06:15:54;;;;;;;12.40;6.57;;;19.60;99.90;;;;;;5053558;28;20090;-69
2023/08/19 06:18:20;;;;;;;11.20;6.47;;;19.70;99.90;;;;;;5053710;28;20029;-68
2023/08/19 06:20:45;;;;;;;10.85;5.95;;;19.80;99.90;;;;;;5052935;28;20099;-69
2023/08/19 06:23:11;;;;;;;9.80;5.93;;;19.90;99.90;;;;;;5053525;28;20017;-68
2023/08/19 06:25:36;;;;;;;11.75;6.78;;;20.00;99.90;;;;;;5053112;28;20025;-69
2023/08/19 06:28:02;;;;;;;12.30;6.40;;;20.10;99.90;;;;;;5053922;28;20017;-69
2023/08/19 06:30:28;;;;;;;9.57;5.90;;;20.30;99.90;;;;;;5053204;28;20028;-69
2023/08/19 06:32:54;;;;;;;12.38;6.22;;;20.40;99.90;;;;;;5053172;28;20017;-69
2023/08/19 06:35:20;;;;;;;11.40;5.97;;;20.60;99.90;;;;;;5053708;28;20021;-69
2023/08/19 06:37:52;;;;;;;9.45;5.80;;;20.80;99.90;;;;;;5053343;28;20365;-68
2023/08/19 06:40:20;;;;;;;10.52;5.85;;;20.90;99.90;;;;;;5053371;28;20087;-69
2023/08/19 06:42:48;;;;;;;10.25;5.78;;;21.00;99.90;;;;;;5053295;28;20449;-68
2023/08/19 06:45:15;;;;;;;11.88;5.47;;;21.10;99.90;;;;;;5053283;28;20071;-69
2023/08/19 06:47:42;;;;;;;8.57;5.60;;;21.30;99.90;;;;;;5053062;28;20047;-69
2023/08/19 06:50:09;;;;;;;10.52;5.93;;;21.40;99.90;;;;;;5052576;28;20053;-68
2023/08/19 06:52:34;;;;;;;8.40;5.70;;;21.50;99.90;;;;;;5052862;28;20021;-69
2023/08/19 06:55:00;;;;;;;14.63;5.45;;;21.70;99.90;;;;;;5052558;28;20017;-69
2023/08/19 06:57:35;;;;;;;12.63;5.32;;;21.80;99.90;;;;;;5052796;28;20024;-69
2023/08/19 07:00:08;;;;;;;9.30;5.50;;;21.90;99.90;;;;;;5052833;28;20108;-69
2023/08/19 07:02:36;;;;;;;7.78;5.60;;;22.00;99.90;;;;;;5053342;28;20108;-69
2023/08/19 07:05:05;;;;;;;9.63;5.53;;;22.10;99.90;;;;;;5052756;28;20067;-69
2023/08/19 07:07:33;;;;;;;10.02;5.65;;;22.30;99.90;;;;;;5053113;28;20393;-69
2023/08/19 07:09:59;;;;;;;10.27;5.43;;;22.40;99.90;;;;;;5051612;28;20203;-69
2023/08/19 07:12:24;;;;;;;9.48;5.35;;;22.60;99.90;;;;;;5053232;28;20463;-68
2023/08/19 07:14:50;;;;;;;14.32;5.70;;;22.80;99.90;;;;;;5052752;28;20035;-69
2023/08/19 07:17:22;;;;;;;8.60;5.57;;;22.90;99.90;;;;;;5052552;28;20036;-68
2023/08/19 07:19:52;;;;;;;7.10;5.00;;;23.10;99.90;;;;;;5055633;28;20036;-68
2023/08/19 07:22:19;;;;;;;11.25;5.43;;;23.30;99.90;;;;;;5056242;28;20446;-68
2023/08/19 07:24:47;;;;;;;12.90;5.22;;;23.50;99.90;;;;;;5056236;28;20114;-69
2023/08/19 07:27:14;;;;;;;9.52;5.00;;;23.70;99.90;;;;;;5056070;28;20065;-69
2023/08/19 07:29:41;;;;;;;8.27;4.90;;;23.90;99.90;;;;;;5056410;28;20035;-68
2023/08/19 07:32:08;;;;;;;14.52;4.47;;;24.20;99.90;;;;;;5056079;28;20016;-68
2023/08/19 07:34:34;;;;;;;8.65;4.30;;;24.60;99.90;;;;;;5055964;28;20035;-70
2023/08/19 07:36:59;;;;;;;9.60;4.28;;;25.00;99.90;;;;;;5056241;28;20021;-68
2023/08/19 07:39:26;;;;;;;12.88;4.65;;;25.30;99.90;;;;;;5056426;28;20039;-68
2023/08/19 07:41:52;;;;;;;8.75;3.83;;;25.60;99.90;;;;;;5056405;28;20086;-68
2023/08/19 07:44:18;;;;;;;8.98;4.28;;;26.00;99.90;;;;;;5056705;28;20033;-68
2023/08/19 07:46:45;;;;;;;11.50;4.38;;;26.30;99.90;;;;;;5056143;28;20032;-69
2023/08/19 07:49:11;;;;;;;7.07;3.80;;;26.50;99.90;;;;;;5054317;28;20049;-69
2023/08/19 07:51:36;;;;;;;16.42;6.53;;;26.80;99.90;;;;;;5055758;28;20025;-69
2023/08/19 07:54:02;;;;;;;13.73;4.38;;;26.90;99.90;;;;;;5055532;28;20028;-69
2023/08/19 07:56:28;;;;;;;9.18;4.20;;;26.90;99.90;;;;;;5055702;28;20051;-68
2023/08/19 07:58:54;;;;;;;10.20;4.60;;;26.90;99.90;;;;;;5055868;28;20021;-69
2023/08/19 08:01:19;;;;;;;9.82;4.50;;;27.00;99.90;;;;;;5055264;28;20021;-70
2023/08/19 08:03:45;;;;;;;9.02;3.88;;;27.20;99.90;;;;;;5055401;28;20108;-68
2023/08/19 08:06:11;;;;;;;19.98;6.30;;;27.40;99.90;;;;;;5055921;28;20472;-68
2023/08/19 08:08:37;;;;;;;13.18;4.55;;;27.50;99.90;;;;;;5055456;28;20027;-68
2023/08/19 08:11:03;;;;;;;11.75;4.50;;;27.50;99.90;;;;;;5055378;28;20021;-68
2023/08/19 08:13:29;;;;;;;12.43;5.40;;;27.60;99.90;;;;;;5055404;28;20361;-68
2023/08/19 08:15:55;;;;;;;14.30;6.47;;;27.70;99.90;;;;;;5055289;28;20036;-68
2023/08/19 08:18:21;;;;;;;11.25;5.03;;;27.70;99.90;;;;;;5054920;28;20180;-68
2023/08/19 08:20:46;;;;;;;7.55;4.30;;;27.70;99.90;;;;;;5055894;28;20445;-67
2023/08/19 08:23:12;;;;;;;10.45;5.07;;;27.80;99.90;;;;;;5055165;28;20052;-68
2023/08/19 08:25:38;;;;;;;14.23;4.47;;;27.90;99.90;;;;;;5054966;28;20036;-69
2023/08/19 08:28:03;;;;;;;6.72;4.20;;;28.00;99.90;;;;;;5054788;28;20367;-66
2023/08/19 08:30:29;;;;;;;12.77;5.35;;;28.30;99.90;;;;;;5054349;28;20036;-70
2023/08/19 08:32:55;;;;;;;9.07;4.35;;;28.40;99.90;;;;;;5054903;28;20028;-70
2023/08/19 08:35:20;;;;;;;11.32;4.68;;;28.40;99.90;;;;;;5054855;28;20016;-70
2023/08/19 08:37:46;;;;;;;12.23;4.30;;;28.50;99.90;;;;;;5054730;28;20032;-69
2023/08/19 08:40:12;;;;;;;14.77;4.82;;;28.70;99.90;;;;;;5054771;28;20396;-70
2023/08/19 08:42:38;;;;;;;15.93;4.65;;;28.80;99.90;;;;;;5054948;28;20518;-70
2023/08/19 08:45:04;;;;;;;12.52;4.97;;;28.80;99.90;;;;;;5054754;28;20113;-70
2023/08/19 08:47:30;;;;;;;9.77;4.63;;;28.90;99.90;;;;;;5054737;28;20044;-70
2023/08/19 08:49:58;;;;;;;7.00;4.00;;;29.00;99.90;;;;;;5054752;28;20047;-70
2023/08/19 08:52:24;;;;;;;11.95;4.50;;;29.20;99.90;;;;;;5055016;28;20071;-69
2023/08/19 08:54:51;;;;;;;9.90;4.85;;;29.10;99.90;;;;;;5054364;28;20028;-70
2023/08/19 08:57:17;;;;;;;14.35;4.65;;;29.20;99.90;;;;;;5054414;28;20078;-70
2023/08/19 08:59:43;;;;;;;13.60;5.50;;;29.30;99.90;;;;;;5054755;28;20025;-70
2023/08/19 09:02:12;;;;;;;14.75;5.43;;;29.50;99.90;;;;;;5054372;28;20104;-69
2023/08/19 09:04:40;;;;;;;8.52;5.25;;;29.50;99.90;;;;;;5054287;28;20127;-70
2023/08/19 09:07:30;;;;;;;13.18;4.63;;;29.50;99.90;;;;;;5054590;28;20032;-71
2023/08/19 09:09:58;;;;;;;8.07;4.65;;;29.60;99.90;;;;;;5053549;28;20025;-70
2023/08/19 09:12:26;;;;;;;12.05;4.78;;;29.60;99.90;;;;;;5054215;28;20024;-72
2023/08/19 09:15:02;;;;;;;13.50;4.78;;;29.80;99.90;;;;;;5054262;28;20027;-72
2023/08/19 09:17:27;;;;;;;11.80;4.70;;;30.00;99.90;;;;;;5054977;28;20035;-71
2023/08/19 09:19:54;;;;;;;9.10;4.82;;;30.10;99.90;;;;;;5054559;28;20025;-71
2023/08/19 09:22:21;;;;;;;11.57;4.85;;;30.10;99.90;;;;;;5054213;28;20094;-71
2023/08/19 09:24:49;;;;;;;12.75;4.60;;;30.20;99.90;;;;;;5054452;28;20035;-70
2023/08/19 09:27:33;;;;;;;11.07;4.20;;;30.30;99.90;;;;;;5054369;28;20036;-70
2023/08/19 09:29:59;;;;;;;9.50;4.78;;;30.50;99.90;;;;;;5054124;28;20096;-70
2023/08/19 09:32:32;;;;;;;14.05;4.85;;;30.60;99.90;;;;;;5054016;28;20114;-71
2023/08/19 09:35:06;;;;;;;15.73;5.05;;;30.70;99.40;;;;;;5053400;28;20090;-70
2023/08/19 09:37:33;;;;;;;14.63;5.10;;;30.80;97.90;;;;;;5054453;28;20028;-70
2023/08/19 09:39:59;;;;;;;8.77;4.38;;;30.90;97.60;;;;;;5053955;28;20021;-71
2023/08/19 09:42:27;;;;;;;15.75;4.78;;;31.10;97.80;;;;;;5053356;28;20019;-71
2023/08/19 09:44:53;;;;;;;10.82;4.90;;;31.20;99.90;;;;;;5054351;28;20036;-70
2023/08/19 09:47:19;;;;;;;15.50;5.38;;;30.90;96.40;;;;;;5053605;28;20393;-70
2023/08/19 09:49:50;;;;;;;10.93;4.80;;;30.70;97.10;;;;;;5053891;28;20095;-70
2023/08/19 09:52:17;;;;;;;13.02;4.72;;;30.90;98.20;;;;;;5053760;28;20029;-70
2023/08/19 09:54:52;;;;;;;11.75;5.00;;;31.00;99.90;;;;;;5054351;28;20323;-70
2023/08/19 09:57:19;;;;;;;13.00;4.97;;;31.20;96.20;;;;;;5053945;28;20029;-70
2023/08/19 09:59:44;;;;;;;9.88;4.68;;;31.20;97.60;;;;;;5054187;28;20028;-71
2023/08/19 10:02:14;;;;;;;12.00;4.88;;;31.30;96.00;;;;;;5054108;28;20021;-70
2023/08/19 10:04:40;;;;;;;10.65;4.13;;;31.40;97.40;;;;;;5053532;28;20024;-71
2023/08/19 10:07:08;;;;;;;7.43;4.38;;;31.50;97.90;;;;;;5053514;28;20373;-71
2023/08/19 10:09:37;;;;;;;14.27;5.30;;;31.40;97.20;;;;;;5052271;28;20020;-70
2023/08/19 10:12:03;;;;;;;13.15;4.78;;;31.30;96.90;;;;;;5053856;28;20100;-69
2023/08/19 10:14:32;;;;;;;14.57;5.57;;;31.30;97.20;;;;;;5053581;28;20021;-69
2023/08/19 10:17:05;;;;;;;9.82;4.47;;;31.50;96.00;;;;;;5053995;28;20029;-67
2023/08/19 10:19:41;;;;;;;11.20;4.50;;;31.80;94.80;;;;;;5053037;28;20036;-70
2023/08/19 10:22:08;;;;;;;8.57;5.00;;;32.00;95.80;;;;;;5054251;28;20033;-69
2023/08/19 10:24:35;;;;;;;10.35;4.80;;;32.10;94.90;;;;;;5054160;28;20362;-70
2023/08/19 10:27:01;;;;;;;8.20;4.60;;;32.10;95.70;;;;;;5053218;28;20028;-71
2023/08/19 10:29:27;;;;;;;10.52;4.53;;;32.30;94.00;;;;;;5053432;28;20091;-70
2023/08/19 10:31:53;;;;;;;9.85;4.40;;;32.40;94.60;;;;;;5053445;28;20017;-70
2023/08/19 10:34:18;;;;;;;8.38;4.90;;;32.40;93.40;;;;;;5053305;28;20100;-71
2023/08/19 10:36:44;;;;;;;11.25;5.03;;;32.60;92.40;;;;;;5053660;28;20021;-70
2023/08/19 10:39:16;;;;;;;12.73;4.72;;;32.60;91.90;;;;;;5053269;28;20428;-70
2023/08/19 10:41:42;;;;;;;10.75;4.40;;;32.70;91.60;;;;;;5053190;28;20017;-70
2023/08/19 10:44:10;;;;;;;8.63;4.47;;;32.80;91.40;;;;;;5053189;28;20025;-69
2023/08/19 10:46:39;;;;;;;12.18;4.80;;;32.90;92.50;;;;;;5053091;28;20029;-70
2023/08/19 10:49:17;;;;;;;10.90;4.70;;;33.00;90.70;;;;;;5052862;28;20044;-70
2023/08/19 10:51:57;;;;;;;9.20;5.00;;;33.10;90.30;;;;;;5053214;28;20032;-70
2023/08/19 10:54:29;;;;;;;;;;;33.20;89.60;;;;;;5055464;28;20025;-70
2023/08/19 10:57:09;;;;;;;8.13;4.60;;;33.40;89.60;;;;;;5056828;28;20333;-70
2023/08/19 10:59:39;;;;;;;13.02;4.60;;;33.60;89.70;;;;;;5057226;28;20079;-70
2023/08/19 11:02:06;;;;;;;10.57;5.18;;;33.40;89.10;;;;;;5056986;28;20013;-70
2023/08/19 11:04:53;;;;;;;12.75;4.28;;;33.30;88.00;;;;;;5056692;28;20361;-70
2023/08/19 11:07:19;;;;;;;15.65;4.65;;;33.30;85.50;;;;;;5056716;28;20045;-71
2023/08/19 11:09:49;;;;;;;13.07;4.88;;;33.40;83.70;;;;;;5056720;28;20466;-71
2023/08/19 11:12:20;;;;;;;11.02;4.43;;;33.60;89.60;;;;;;5056909;28;20028;-71
2023/08/19 11:14:50;;;;;;;12.63;4.70;;;33.80;83.30;;;;;;5057052;28;20419;-70
2023/08/19 11:17:17;;;;;;;14.30;4.57;;;33.70;82.10;;;;;;5057147;28;20033;-71
2023/08/19 11:19:44;;;;;;;10.85;4.40;;;33.80;80.50;;;;;;5056472;28;20057;-70
2023/08/19 11:22:14;;;;;;;13.68;4.68;;;33.90;79.40;;;;;;5056772;28;20104;-70
2023/08/19 11:24:40;;;;;;;12.02;4.68;;;33.90;81.40;;;;;;5056447;28;20104;-70
2023/08/19 11:27:07;;;;;;;10.02;4.18;;;34.00;81.40;;;;;;5056293;28;20064;-71
2023/08/19 11:29:36;;;;;;;11.93;4.50;;;33.90;80.00;;;;;;5056413;28;20032;-71
2023/08/19 11:32:01;;;;;;;13.53;4.53;;;34.00;79.90;;;;;;5056400;28;20125;-70
2023/08/19 11:34:29;;;;;;;7.88;4.40;;;34.20;79.90;;;;;;5056580;28;20473;-71
2023/08/19 11:36:54;;;;;;;13.00;4.55;;;34.40;81.40;;;;;;5056256;28;20067;-70
2023/08/19 11:39:20;;;;;;;14.88;4.55;;;34.40;76.40;;;;;;5056676;28;20017;-70
2023/08/19 11:41:47;;;;;;;9.40;4.78;;;34.30;80.50;;;;;;5056034;28;20028;-70
2023/08/19 11:44:14;;;;;;;12.20;4.93;;;34.30;78.80;;;;;;5056021;28;20353;-70
2023/08/19 11:46:39;;;;;;;12.68;4.90;;;34.50;77.60;;;;;;5055923;28;20028;-69
2023/08/19 11:49:06;;;;;;;14.52;4.63;;;34.30;76.80;;;;;;5055509;28;20052;-71
2023/08/19 11:51:32;;;;;;;13.20;4.65;;;34.40;77.70;;;;;;5055933;28;20091;-70
2023/08/19 11:54:03;;;;;;;11.55;4.25;;;34.50;77.40;;;;;;5056145;28;20033;-71
2023/08/19 11:56:29;;;;;;;13.50;4.40;;;34.60;79.00;;;;;;5055877;28;20036;-70
2023/08/19 11:58:55;;;;;;;9.40;4.68;;;34.50;74.90;;;;;;5056261;28;20385;-70
2023/08/19 12:01:22;;;;;;;17.02;4.90;;;34.20;74.80;;;;;;5056044;28;20031;-70
2023/08/19 12:03:49;;;;;;;13.82;4.60;;;34.20;76.80;;;;;;5055416;28;20421;-71
2023/08/19 12:06:16;;;;;;;11.90;4.78;;;34.50;79.80;;;;;;5054575;28;20373;-70
2023/08/19 12:08:43;;;;;;;14.02;4.40;;;34.80;72.60;;;;;;5056120;28;20056;-70
2023/08/19 12:11:14;;;;;;;12.90;4.85;;;34.90;72.80;;;;;;5055543;28;20024;-70
2023/08/19 12:13:39;;;;;;;8.98;4.78;;;34.70;71.40;;;;;;5055507;28;20021;-69
2023/08/19 12:16:06;;;;;;;12.05;4.55;;;34.60;71.10;;;;;;5055464;28;20032;-69
2023/08/19 12:18:33;;;;;;;11.23;4.40;;;34.40;71.00;;;;;;5055271;28;20104;-70
2023/08/19 12:21:01;;;;;;;14.23;4.72;;;34.20;73.10;;;;;;5055352;28;20040;-70
2023/08/19 12:23:27;;;;;;;9.45;4.53;;;34.30;72.80;;;;;;5055813;28;20025;-70
2023/08/19 12:25:57;;;;;;;19.00;5.13;;;34.50;73.10;;;;;;5055232;28;20113;-70
2023/08/19 12:28:24;;;;;;;8.68;4.60;;;34.60;70.40;;;;;;5056047;28;20032;-71
2023/08/19 12:30:51;;;;;;;13.20;4.72;;;34.70;74.50;;;;;;5056072;28;20017;-70
2023/08/19 12:33:18;;;;;;;10.93;4.60;;;34.90;71.20;;;;;;5055487;28;20509;-69
2023/08/19 12:35:47;;;;;;;15.45;4.80;;;35.00;74.10;;;;;;5055129;28;20027;-70
2023/08/19 12:38:14;;;;;;;12.37;5.00;;;35.20;71.30;;;;;;5055607;28;20055;-70
2023/08/19 12:40:44;;;;;;;16.25;5.07;;;35.20;66.60;;;;;;5055527;28;20266;-70